Time;durP1;ratioP1;P1;durP2;ratioP2;P2;SDS_P1;SDS_P2;PMS_P1;PMS_P2;Temp;Humidity;BMP_temperature;BMP_pressure;BME280_temperature;BME280_humidity;BME280_pressure;Samples;Min_cycle;Max_cycle;Signal;HPM_P1;HPM_P2
2022/05/06 00:02:15;;;;;;;22.53;17.83;;;;;;;;;;4997397;28;20176;-35
2022/05/06 00:04:43;;;;;;;20.23;16.90;;;;;;;;;;4999864;28;20464;-38
2022/05/06 00:07:11;;;;;;;20.73;16.57;;;;;;;;;;4994267;28;20434;-38
2022/05/06 00:09:37;;;;;;;18.30;15.53;;;;;;;;;;4999667;28;20177;-40
2022/05/06 00:12:04;;;;;;;21.10;16.43;;;;;;;;;;4996870;28;20292;-37
2022/05/06 00:14:31;;;;;;;19.87;15.70;;;;;;;;;;4999592;28;20316;-38
2022/05/06 00:16:57;;;;;;;19.27;13.90;;;;;;;;;;4995603;28;20308;-40
2022/05/06 00:19:23;;;;;;;17.27;14.67;;;;;;;;;;4996625;28;20197;-40
2022/05/06 00:21:49;;;;;;;13.30;11.90;;;;;;;;;;4997992;28;20230;-41
2022/05/06 00:24:15;;;;;;;19.07;14.80;;;;;;;;;;4998120;28;21900;-40
2022/05/06 00:26:41;;;;;;;15.83;14.07;;;;;;;;;;4996256;28;20596;-42
2022/05/06 00:29:08;;;;;;;16.67;13.27;;;;;;;;;;5007874;28;21102;-40
2022/05/06 00:31:34;;;;;;;16.67;14.13;;;;;;;;;;5000106;28;20469;-39
2022/05/06 00:34:01;;;;;;;17.77;13.80;;;;;;;;;;5000406;28;20172;-37
2022/05/06 00:36:27;;;;;;;17.53;14.30;;;;;;;;;;4997796;28;20184;-41
2022/05/06 00:38:54;;;;;;;19.63;14.17;;;;;;;;;;4994073;28;20594;-39
2022/05/06 00:41:20;;;;;;;16.57;14.17;;;;;;;;;;4995989;28;20566;-40
2022/05/06 00:43:46;;;;;;;20.73;16.87;;;;;;;;;;4999225;28;20167;-41
2022/05/06 00:46:14;;;;;;;17.70;14.67;;;;;;;;;;4994451;28;20215;-38
2022/05/06 00:48:41;;;;;;;19.00;15.77;;;;;;;;;;4995587;28;20176;-37
2022/05/06 00:51:08;;;;;;;22.20;17.40;;;;;;;;;;4995654;28;20852;-38
2022/05/06 00:53:37;;;;;;;19.70;16.10;;;;;;;;;;5000184;28;20564;-40
2022/05/06 00:56:04;;;;;;;20.70;16.90;;;;;;;;;;4992437;28;20789;-40
2022/05/06 00:58:32;;;;;;;18.17;15.63;;;;;;;;;;4998621;28;20188;-36
2022/05/06 01:00:58;;;;;;;21.53;17.37;;;;;;;;;;4998438;28;20537;-36
2022/05/06 01:03:24;;;;;;;22.50;17.23;;;;;;;;;;4995556;28;20184;-40
2022/05/06 01:05:50;;;;;;;23.70;19.10;;;;;;;;;;4991260;28;20203;-40
2022/05/06 01:08:16;;;;;;;21.67;17.60;;;;;;;;;;5000866;28;20718;-39
2022/05/06 01:10:43;;;;;;;24.80;18.23;;;;;;;;;;4995409;28;20268;-40
2022/05/06 01:13:09;;;;;;;22.93;17.60;;;;;;;;;;4996417;28;20180;-39
2022/05/06 01:15:36;;;;;;;21.30;18.47;;;;;;;;;;5000773;28;20641;-37
2022/05/06 01:18:02;;;;;;;20.23;16.93;;;;;;;;;;4999760;28;20200;-35
2022/05/06 01:20:29;;;;;;;20.33;17.50;;;;;;;;;;4993826;28;20177;-38
2022/05/06 01:22:59;;;;;;;21.63;18.27;;;;;;;;;;4994048;28;20255;-39
2022/05/06 01:25:26;;;;;;;20.93;17.97;;;;;;;;;;5001482;28;20707;-37
2022/05/06 01:27:55;;;;;;;26.37;20.20;;;;;;;;;;5000812;28;20823;-35
2022/05/06 01:30:32;;;;;;;20.80;17.23;;;;;;;;;;4997137;28;21076;-39
2022/05/06 01:32:59;;;;;;;21.07;17.47;;;;;;;;;;5001048;28;20168;-35
2022/05/06 01:35:29;;;;;;;22.93;17.67;;;;;;;;;;4998012;28;20230;-37
2022/05/06 01:37:57;;;;;;;26.27;19.40;;;;;;;;;;4998991;28;20609;-37
2022/05/06 01:40:25;;;;;;;23.57;19.80;;;;;;;;;;4992124;28;20180;-39
2022/05/06 01:42:53;;;;;;;23.93;19.40;;;;;;;;;;4996930;28;20260;-35
2022/05/06 01:45:22;;;;;;;23.23;19.27;;;;;;;;;;5000460;28;20407;-37
2022/05/06 01:47:50;;;;;;;22.10;18.83;;;;;;;;;;5000155;28;20204;-38
2022/05/06 01:50:16;;;;;;;30.60;21.63;;;;;;;;;;4999580;28;20219;-39
2022/05/06 01:52:43;;;;;;;22.93;19.77;;;;;;;;;;4998822;28;20182;-40
2022/05/06 01:55:12;;;;;;;28.07;21.37;;;;;;;;;;4995391;28;20180;-39
2022/05/06 01:57:38;;;;;;;26.23;20.27;;;;;;;;;;4994514;28;20346;-37
2022/05/06 02:00:05;;;;;;;21.90;19.10;;;;;;;;;;4991697;28;20793;-37
2022/05/06 02:02:31;;;;;;;24.63;18.53;;;;;;;;;;4994632;28;20184;-39
2022/05/06 02:07:42;;;;;;;23.80;18.00;;;;;;;;;;4992958;28;20207;-39
2022/05/06 02:10:11;;;;;;;22.73;18.93;;;;;;;;;;4999579;28;20635;-37
2022/05/06 02:12:38;;;;;;;20.40;17.90;;;;;;;;;;4995475;28;20510;-36
2022/05/06 02:15:04;;;;;;;20.80;18.53;;;;;;;;;;4994848;28;20168;-36
2022/05/06 02:17:38;;;;;;;24.73;21.20;;;;;;;;;;4997395;28;20160;-36
2022/05/06 02:20:04;;;;;;;22.97;18.87;;;;;;;;;;4996881;28;20191;-38
2022/05/06 02:22:30;;;;;;;25.80;21.67;;;;;;;;;;4996902;28;20257;-36
2022/05/06 02:24:59;;;;;;;22.73;18.40;;;;;;;;;;4998196;28;20203;-38
2022/05/06 02:27:25;;;;;;;30.33;23.87;;;;;;;;;;4997895;28;20443;-39
2022/05/06 02:35:36;;;;;;;22.73;19.03;;;;;;;;;;4999652;28;20615;-38
2022/05/06 02:38:03;;;;;;;19.90;16.77;;;;;;;;;;4991963;28;20208;-36
2022/05/06 02:40:29;;;;;;;23.63;19.07;;;;;;;;;;4996040;28;20172;-37
2022/05/06 02:42:55;;;;;;;18.40;15.97;;;;;;;;;;4988327;28;20206;-36
2022/05/06 02:45:22;;;;;;;17.83;14.70;;;;;;;;;;4999393;28;20404;-37
2022/05/06 02:47:51;;;;;;;20.37;16.87;;;;;;;;;;4994016;28;20180;-35
2022/05/06 02:50:17;;;;;;;16.33;14.13;;;;;;;;;;4991031;28;20684;-38
2022/05/06 02:52:43;;;;;;;20.87;16.70;;;;;;;;;;4994578;28;20822;-37
2022/05/06 02:55:10;;;;;;;18.93;15.33;;;;;;;;;;4995914;28;20923;-36
2022/05/06 02:57:36;;;;;;;18.43;16.53;;;;;;;;;;4996102;28;20941;-39
2022/05/06 03:00:03;;;;;;;18.93;16.43;;;;;;;;;;5001018;28;20324;-40
2022/05/06 03:02:29;;;;;;;18.13;14.60;;;;;;;;;;4998476;28;20180;-39
2022/05/06 03:04:56;;;;;;;16.57;13.50;;;;;;;;;;5001177;28;20333;-37
2022/05/06 03:07:27;;;;;;;16.97;14.53;;;;;;;;;;5001464;28;20187;-34
2022/05/06 03:09:53;;;;;;;16.30;12.17;;;;;;;;;;4998824;28;20168;-35
2022/05/06 03:12:26;;;;;;;16.83;14.33;;;;;;;;;;4996583;28;20294;-37
2022/05/06 03:14:52;;;;;;;14.90;13.37;;;;;;;;;;4999330;28;21006;-35
2022/05/06 03:17:18;;;;;;;15.23;13.23;;;;;;;;;;5001815;28;20383;-39
2022/05/06 03:19:44;;;;;;;15.93;14.23;;;;;;;;;;5002072;28;20591;-39
2022/05/06 03:22:10;;;;;;;14.37;12.93;;;;;;;;;;4990795;28;20179;-38
2022/05/06 03:24:37;;;;;;;18.93;15.73;;;;;;;;;;4999626;28;20210;-38
2022/05/06 03:27:03;;;;;;;18.17;14.47;;;;;;;;;;5002325;28;20480;-37
2022/05/06 03:29:30;;;;;;;14.93;13.23;;;;;;;;;;4998276;28;20445;-42
2022/05/06 03:31:57;;;;;;;14.73;12.63;;;;;;;;;;5000209;28;20253;-40
2022/05/06 03:34:23;;;;;;;16.20;13.53;;;;;;;;;;5001702;28;20187;-37
2022/05/06 03:36:50;;;;;;;14.00;12.40;;;;;;;;;;4998682;28;20194;-39
2022/05/06 03:39:16;;;;;;;15.63;13.83;;;;;;;;;;4999152;28;20210;-40
2022/05/06 03:41:42;;;;;;;13.97;12.23;;;;;;;;;;5002150;28;20514;-37
2022/05/06 03:44:08;;;;;;;17.73;13.73;;;;;;;;;;5002796;28;20298;-40
2022/05/06 03:46:34;;;;;;;17.03;15.13;;;;;;;;;;5002964;28;20176;-38
2022/05/06 03:49:01;;;;;;;16.20;14.23;;;;;;;;;;4999890;28;20172;-38
2022/05/06 03:51:31;;;;;;;18.07;14.97;;;;;;;;;;5003577;28;20607;-39
2022/05/06 03:53:57;;;;;;;15.47;13.23;;;;;;;;;;4994763;28;20176;-39
2022/05/06 03:56:25;;;;;;;16.10;13.43;;;;;;;;;;4995112;28;20182;-38
2022/05/06 03:58:52;;;;;;;16.10;14.33;;;;;;;;;;5001157;28;20204;-40
2022/05/06 04:01:19;;;;;;;15.33;13.73;;;;;;;;;;5001283;28;20597;-40
2022/05/06 04:03:46;;;;;;;14.20;12.80;;;;;;;;;;4997309;28;20928;-38
2022/05/06 04:06:15;;;;;;;18.53;15.00;;;;;;;;;;5009061;28;20715;-39
2022/05/06 04:08:44;;;;;;;16.33;13.37;;;;;;;;;;5000913;28;20424;-41
2022/05/06 04:11:11;;;;;;;14.43;12.57;;;;;;;;;;5000098;28;20194;-38
2022/05/06 04:13:37;;;;;;;14.10;12.60;;;;;;;;;;4997630;28;20634;-37
2022/05/06 04:16:04;;;;;;;15.50;13.37;;;;;;;;;;4991616;28;20710;-39
2022/05/06 04:18:31;;;;;;;13.60;12.07;;;;;;;;;;4997959;28;20456;-40
2022/05/06 04:23:42;;;;;;;15.27;13.67;;;;;;;;;;5000116;28;20640;-36
2022/05/06 04:26:12;;;;;;;14.67;12.60;;;;;;;;;;4998348;28;21363;-40
2022/05/06 04:28:39;;;;;;;14.53;11.97;;;;;;;;;;5001142;28;20688;-40
2022/05/06 04:31:06;;;;;;;15.33;13.70;;;;;;;;;;4998176;28;20353;-41
2022/05/06 04:33:32;;;;;;;12.77;11.37;;;;;;;;;;4996314;28;20188;-41
2022/05/06 04:36:04;;;;;;;11.87;10.67;;;;;;;;;;4993675;28;20184;-38
2022/05/06 04:38:30;;;;;;;11.83;10.50;;;;;;;;;;4997844;28;20204;-41
2022/05/06 04:40:56;;;;;;;14.23;11.07;;;;;;;;;;5000124;28;20535;-39
2022/05/06 04:43:23;;;;;;;10.33;9.30;;;;;;;;;;5001666;28;21104;-40
2022/05/06 04:45:49;;;;;;;12.47;10.23;;;;;;;;;;4990090;28;20362;-39
2022/05/06 04:48:16;;;;;;;12.63;11.03;;;;;;;;;;4992124;28;20172;-40
2022/05/06 04:50:43;;;;;;;11.33;10.23;;;;;;;;;;4999235;28;21054;-37
2022/05/06 04:53:13;;;;;;;11.70;10.50;;;;;;;;;;4996218;28;20363;-39
2022/05/06 04:55:43;;;;;;;11.07;9.97;;;;;;;;;;4996798;28;20809;-38
2022/05/06 04:58:13;;;;;;;12.30;10.27;;;;;;;;;;4997675;28;20200;-40
2022/05/06 05:00:39;;;;;;;9.67;8.53;;;;;;;;;;5000406;28;20190;-38
2022/05/06 05:03:05;;;;;;;11.70;10.50;;;;;;;;;;4996361;28;20172;-41
2022/05/06 05:05:31;;;;;;;10.73;9.63;;;;;;;;;;4999430;28;20169;-40
2022/05/06 05:07:57;;;;;;;10.83;9.53;;;;;;;;;;5002275;28;20672;-37
2022/05/06 05:10:24;;;;;;;14.30;10.90;;;;;;;;;;4995800;28;20762;-39
2022/05/06 05:12:50;;;;;;;12.30;10.83;;;;;;;;;;4998891;28;20229;-40
2022/05/06 05:15:16;;;;;;;12.10;10.33;;;;;;;;;;5000532;28;21019;-36
2022/05/06 05:17:46;;;;;;;10.43;9.33;;;;;;;;;;4996718;28;20348;-36
2022/05/06 05:20:16;;;;;;;13.30;11.77;;;;;;;;;;4999918;28;20432;-36
2022/05/06 05:22:42;;;;;;;12.33;11.03;;;;;;;;;;4995448;28;20190;-38
2022/05/06 05:25:09;;;;;;;11.23;9.70;;;;;;;;;;4997466;28;20447;-40
2022/05/06 05:27:39;;;;;;;13.90;11.83;;;;;;;;;;4998773;28;20187;-39
2022/05/06 05:30:06;;;;;;;11.77;10.53;;;;;;;;;;4997135;28;20660;-38
2022/05/06 05:32:32;;;;;;;13.50;12.10;;;;;;;;;;4996654;28;20180;-40
2022/05/06 05:34:59;;;;;;;12.10;10.90;;;;;;;;;;5001336;28;20184;-37
2022/05/06 05:37:25;;;;;;;15.83;12.40;;;;;;;;;;5000818;28;20360;-39
2022/05/06 05:39:51;;;;;;;16.30;13.97;;;;;;;;;;5001499;28;20262;-37
2022/05/06 05:42:21;;;;;;;13.63;12.23;;;;;;;;;;5000791;28;20586;-40
2022/05/06 05:50:18;;;;;;;12.90;11.60;;;;;;;;;;5002075;28;20385;-40
2022/05/06 05:52:44;;;;;;;14.73;13.17;;;;;;;;;;5003068;28;20779;-35
2022/05/06 05:55:11;;;;;;;16.73;14.43;;;;;;;;;;5000690;28;20353;-37
2022/05/06 05:57:37;;;;;;;18.67;15.60;;;;;;;;;;4999284;28;20608;-36
2022/05/06 06:00:05;;;;;;;14.87;13.27;;;;;;;;;;4999713;28;20322;-37
2022/05/06 06:02:31;;;;;;;15.50;13.13;;;;;;;;;;5000538;28;20192;-37
2022/05/06 06:04:57;;;;;;;17.17;13.77;;;;;;;;;;4999297;28;20168;-40
2022/05/06 06:07:25;;;;;;;14.53;13.03;;;;;;;;;;4997915;28;20183;-39
2022/05/06 06:09:52;;;;;;;14.33;12.83;;;;;;;;;;5002597;28;20180;-40
2022/05/06 06:12:18;;;;;;;15.83;13.90;;;;;;;;;;5003011;28;20721;-40
2022/05/06 06:14:44;;;;;;;17.00;14.30;;;;;;;;;;5004242;28;20454;-38
2022/05/06 06:17:10;;;;;;;13.33;11.90;;;;;;;;;;4996818;28;20238;-41
2022/05/06 06:19:36;;;;;;;15.90;12.93;;;;;;;;;;4999297;28;20573;-37
2022/05/06 06:22:02;;;;;;;14.30;12.80;;;;;;;;;;5003417;28;20273;-37
2022/05/06 06:24:30;;;;;;;16.80;14.07;;;;;;;;;;5004312;28;20570;-40
2022/05/06 06:26:56;;;;;;;14.47;11.93;;;;;;;;;;5000147;28;20911;-40
2022/05/06 06:29:22;;;;;;;17.83;14.37;;;;;;;;;;5003330;28;20183;-39
2022/05/06 06:31:48;;;;;;;16.13;13.50;;;;;;;;;;5002813;28;20183;-38
2022/05/06 06:34:14;;;;;;;15.70;12.87;;;;;;;;;;5001785;28;20192;-38
2022/05/06 06:36:40;;;;;;;15.53;12.77;;;;;;;;;;4998126;28;20209;-41
2022/05/06 06:39:06;;;;;;;17.30;14.20;;;;;;;;;;5005027;28;20861;-42
2022/05/06 06:41:32;;;;;;;14.97;13.37;;;;;;;;;;5006389;28;20750;-38
2022/05/06 06:44:00;;;;;;;15.20;12.03;;;;;;;;;;4999648;28;20455;-41
2022/05/06 06:46:26;;;;;;;15.40;13.33;;;;;;;;;;4999770;28;20188;-41
2022/05/06 06:48:53;;;;;;;16.63;13.17;;;;;;;;;;5003552;28;20180;-42
2022/05/06 06:51:19;;;;;;;13.33;12.00;;;;;;;;;;5002426;28;20550;-42
2022/05/06 06:53:45;;;;;;;18.00;14.73;;;;;;;;;;5000843;28;20685;-41
2022/05/06 06:56:11;;;;;;;16.53;11.90;;;;;;;;;;5005034;28;21038;-41
2022/05/06 06:58:37;;;;;;;16.20;13.07;;;;;;;;;;5002674;28;20203;-41
2022/05/06 07:01:03;;;;;;;15.47;12.80;;;;;;;;;;4999960;28;20199;-40
2022/05/06 07:03:29;;;;;;;14.67;12.20;;;;;;;;;;4998511;28;20282;-40
2022/05/06 07:14:10;;;;;;;15.03;12.03;;;;;;;;;;5000678;28;20210;-39
2022/05/06 07:16:39;;;;;;;15.40;13.03;;;;;;;;;;5004849;28;20330;-40
2022/05/06 07:19:05;;;;;;;15.00;12.27;;;;;;;;;;4999899;28;20228;-41
2022/05/06 07:21:31;;;;;;;15.10;13.03;;;;;;;;;;5001492;28;20203;-41
2022/05/06 07:23:57;;;;;;;17.37;14.87;;;;;;;;;;5004049;28;20351;-41
2022/05/06 07:26:24;;;;;;;16.03;12.23;;;;;;;;;;5005651;28;20184;-42
2022/05/06 07:28:50;;;;;;;14.97;12.20;;;;;;;;;;5004865;28;20219;-42
2022/05/06 07:31:17;;;;;;;12.97;11.63;;;;;;;;;;4997321;28;20567;-41
2022/05/06 07:33:43;;;;;;;16.23;13.07;;;;;;;;;;5001621;28;21043;-41
2022/05/06 07:36:09;;;;;;;14.00;11.67;;;;;;;;;;5004943;28;20559;-41
2022/05/06 07:38:35;;;;;;;11.97;10.67;;;;;;;;;;5000429;28;20758;-41
2022/05/06 07:41:03;;;;;;;12.77;11.33;;;;;;;;;;5005970;28;20177;-41
2022/05/06 07:43:29;;;;;;;14.10;10.80;;;;;;;;;;5002901;28;20235;-41
2022/05/06 07:45:55;;;;;;;13.77;11.17;;;;;;;;;;5003828;28;20172;-42
2022/05/06 07:48:21;;;;;;;14.40;12.57;;;;;;;;;;5004080;28;20907;-42
2022/05/06 07:50:48;;;;;;;13.53;10.50;;;;;;;;;;5007016;28;20557;-41
2022/05/06 07:53:15;;;;;;;15.07;11.87;;;;;;;;;;5005568;28;20201;-42
2022/05/06 07:55:41;;;;;;;13.77;11.10;;;;;;;;;;5008638;28;20207;-40
2022/05/06 07:58:07;;;;;;;13.50;11.60;;;;;;;;;;5009019;28;20188;-40
2022/05/06 08:00:34;;;;;;;14.90;11.50;;;;;;;;;;5008898;28;20977;-42
2022/05/06 08:05:47;;;;;;;13.80;10.50;;;;;;;;;;5007176;28;21076;-39
2022/05/06 08:08:14;;;;;;;13.67;12.17;;;;;;;;;;5008235;28;20301;-43
2022/05/06 08:10:40;;;;;;;12.40;11.10;;;;;;;;;;5008311;28;20214;-40
2022/05/06 08:13:06;;;;;;;11.37;10.13;;;;;;;;;;5004663;28;20180;-42
2022/05/06 08:15:33;;;;;;;12.10;10.00;;;;;;;;;;5006017;28;20181;-42
2022/05/06 08:17:59;;;;;;;13.83;11.50;;;;;;;;;;5005816;28;20648;-41
2022/05/06 08:20:25;;;;;;;17.20;12.20;;;;;;;;;;5003611;28;21141;-39
2022/05/06 08:22:51;;;;;;;13.47;11.83;;;;;;;;;;5006820;28;20303;-41
2022/05/06 08:25:17;;;;;;;15.77;12.77;;;;;;;;;;5010252;28;20257;-43
2022/05/06 08:27:44;;;;;;;17.20;12.57;;;;;;;;;;5007202;28;20240;-41
2022/05/06 08:30:12;;;;;;;15.60;12.90;;;;;;;;;;5007288;28;20242;-39
2022/05/06 08:32:38;;;;;;;12.17;10.60;;;;;;;;;;5009124;28;20770;-42
2022/05/06 08:35:05;;;;;;;13.43;11.13;;;;;;;;;;5008149;28;20575;-42
2022/05/06 08:37:40;;;;;;;13.27;10.50;;;;;;;;;;5002594;28;20675;-42
2022/05/06 08:40:06;;;;;;;11.83;10.63;;;;;;;;;;5004850;28;20197;-43
2022/05/06 08:42:32;;;;;;;13.63;11.13;;;;;;;;;;5008250;28;20199;-41
2022/05/06 08:53:14;;;;;;;13.40;11.43;;;;;;;;;;5006687;28;20265;-43
2022/05/06 08:55:40;;;;;;;12.50;10.40;;;;;;;;;;5004994;28;20592;-38
2022/05/06 08:58:06;;;;;;;14.90;11.67;;;;;;;;;;5006871;28;20812;-42
2022/05/06 09:00:32;;;;;;;13.17;10.40;;;;;;;;;;5002888;28;20172;-41
2022/05/06 09:02:58;;;;;;;12.00;10.37;;;;;;;;;;5005247;28;20172;-41
2022/05/06 09:05:24;;;;;;;12.90;9.37;;;;;;;;;;5004442;28;20509;-42
2022/05/06 09:08:09;;;;;;;12.90;10.87;;;;;;;;;;5005913;28;20173;-40
2022/05/06 09:10:35;;;;;;;14.17;11.00;;;;;;;;;;5006444;28;20180;-37
2022/05/06 09:13:01;;;;;;;13.33;11.23;;;;;;;;;;5000840;28;21113;-40
2022/05/06 09:18:18;;;;;;;14.43;11.27;;;;;;;;;;5002059;28;20406;-42
2022/05/06 09:20:44;;;;;;;13.67;9.67;;;;;;;;;;5000735;28;20168;-42
2022/05/06 09:23:20;;;;;;;12.20;9.97;;;;;;;;;;5003818;28;20900;-41
2022/05/06 09:25:49;;;;;;;11.13;9.93;;;;;;;;;;5000660;28;20560;-42
2022/05/06 09:28:21;;;;;;;15.50;11.70;;;;;;;;;;5004452;28;20183;-41
2022/05/06 09:31:07;;;;;;;15.50;11.63;;;;;;;;;;5001460;28;20278;-42
2022/05/06 09:33:36;;;;;;;14.73;12.43;;;;;;;;;;5001165;28;20544;-40
2022/05/06 09:36:23;;;;;;;16.10;13.40;;;;;;;;;;5003952;28;20173;-42
2022/05/06 09:39:05;;;;;;;17.87;13.20;;;;;;;;;;5004646;28;20751;-40
2022/05/06 09:41:32;;;;;;;17.07;13.33;;;;;;;;;;5000074;28;20390;-38
2022/05/06 09:43:59;;;;;;;17.43;13.73;;;;;;;;;;5000700;28;20168;-41
2022/05/06 09:46:25;;;;;;;16.23;13.50;;;;;;;;;;5003437;28;20190;-42
2022/05/06 09:48:58;;;;;;;20.60;16.13;;;;;;;;;;5003896;28;20173;-41
2022/05/06 09:51:28;;;;;;;15.47;12.73;;;;;;;;;;5001190;28;20191;-42
2022/05/06 09:53:55;;;;;;;17.50;14.80;;;;;;;;;;5004039;28;20172;-42
2022/05/06 09:56:22;;;;;;;23.77;15.77;;;;;;;;;;5003882;28;20194;-41
2022/05/06 09:58:49;;;;;;;19.80;14.63;;;;;;;;;;5004838;28;20266;-41
2022/05/06 10:01:16;;;;;;;22.93;16.90;;;;;;;;;;5005110;28;20169;-41
2022/05/06 10:03:42;;;;;;;19.30;15.27;;;;;;;;;;5003298;28;20286;-42
2022/05/06 10:06:11;;;;;;;22.03;15.73;;;;;;;;;;5003108;28;20207;-41
2022/05/06 10:08:58;;;;;;;16.77;12.90;;;;;;;;;;5007365;28;20172;-42
2022/05/06 10:11:29;;;;;;;15.73;12.23;;;;;;;;;;5002922;28;20633;-40
2022/05/06 10:13:59;;;;;;;14.50;11.63;;;;;;;;;;5001902;28;20245;-40
2022/05/06 10:16:35;;;;;;;13.57;12.13;;;;;;;;;;5005723;28;20172;-41
2022/05/06 10:19:01;;;;;;;16.73;12.57;;;;;;;;;;5004265;28;20501;-40
2022/05/06 10:21:46;;;;;;;19.17;13.83;;;;;;;;;;5002403;28;20625;-42
2022/05/06 10:24:16;;;;;;;13.90;11.20;;;;;;;;;;5003248;28;20175;-40
2022/05/06 10:26:44;;;;;;;13.53;11.90;;;;;;;;;;5005008;28;20588;-40
2022/05/06 10:34:55;;;;;;;14.80;11.90;;;;;;;;;;5005357;28;20211;-40
2022/05/06 10:37:22;;;;;;;16.73;13.53;;;;;;;;;;5002577;28;20663;-40
2022/05/06 10:39:48;;;;;;;18.47;13.97;;;;;;;;;;5003242;28;20665;-38
2022/05/06 10:42:18;;;;;;;16.37;13.60;;;;;;;;;;5005593;28;20180;-39
2022/05/06 10:44:50;;;;;;;23.50;16.67;;;;;;;;;;4997779;28;20230;-41
2022/05/06 10:47:16;;;;;;;19.40;14.30;;;;;;;;;;4999792;28;20172;-39
2022/05/06 10:49:51;;;;;;;16.77;14.73;;;;;;;;;;5003561;28;20657;-39
2022/05/06 10:52:23;;;;;;;17.03;13.73;;;;;;;;;;5003121;28;20628;-39
2022/05/06 10:54:49;;;;;;;16.93;13.77;;;;;;;;;;5003417;28;20346;-38
2022/05/06 10:57:16;;;;;;;20.50;14.97;;;;;;;;;;5002945;28;20256;-40
2022/05/06 10:59:48;;;;;;;20.10;14.30;;;;;;;;;;5001884;28;20302;-37
2022/05/06 11:02:16;;;;;;;18.93;14.40;;;;;;;;;;5000311;28;20258;-39
2022/05/06 11:04:42;;;;;;;18.23;14.17;;;;;;;;;;5004226;28;20235;-38
2022/05/06 11:07:14;;;;;;;17.10;14.03;;;;;;;;;;4999816;28;20168;-39
2022/05/06 11:09:40;;;;;;;20.70;14.60;;;;;;;;;;5000144;28;20340;-40
2022/05/06 11:12:07;;;;;;;18.60;14.07;;;;;;;;;;5004210;28;20188;-38
2022/05/06 11:14:33;;;;;;;18.60;14.23;;;;;;;;;;5002318;28;20722;-37
2022/05/06 11:17:18;;;;;;;21.40;14.93;;;;;;;;;;4995746;28;20285;-39
2022/05/06 11:19:45;;;;;;;18.73;14.27;;;;;;;;;;5002579;28;20258;-39
2022/05/06 11:22:11;;;;;;;17.17;13.10;;;;;;;;;;5005228;28;20756;-40
2022/05/06 11:24:37;;;;;;;24.07;16.87;;;;;;;;;;5003198;28;20192;-38
2022/05/06 11:27:19;;;;;;;20.47;15.33;;;;;;;;;;5004158;28;20759;-40
2022/05/06 11:29:57;;;;;;;17.67;13.73;;;;;;;;;;5000758;28;20180;-39
2022/05/06 11:32:24;;;;;;;14.57;12.20;;;;;;;;;;5001143;28;20177;-38
2022/05/06 11:35:02;;;;;;;18.20;14.27;;;;;;;;;;5005679;28;20184;-37
2022/05/06 11:37:33;;;;;;;18.10;13.60;;;;;;;;;;5003092;28;20426;-38
2022/05/06 11:42:44;;;;;;;18.27;14.17;;;;;;;;;;5009469;28;20544;-38
2022/05/06 11:48:13;;;;;;;15.03;12.57;;;;;;;;;;5006408;28;20289;-41
2022/05/06 11:50:41;;;;;;;21.00;13.57;;;;;;;;;;5006898;28;20184;-41
2022/05/06 11:53:08;;;;;;;18.43;15.47;;;;;;;;;;5010571;28;20172;-41
2022/05/06 11:55:38;;;;;;;18.93;14.23;;;;;;;;;;5008079;28;20681;-41
2022/05/06 11:58:08;;;;;;;19.00;13.67;;;;;;;;;;5006346;28;20181;-41
2022/05/06 12:00:34;;;;;;;16.80;13.27;;;;;;;;;;5005269;28;20627;-37
2022/05/06 12:03:04;;;;;;;20.63;14.00;;;;;;;;;;5008003;28;20506;-36
2022/05/06 12:05:31;;;;;;;17.30;13.47;;;;;;;;;;5007107;28;20185;-36
2022/05/06 12:07:57;;;;;;;16.70;11.93;;;;;;;;;;5004251;28;20620;-40
2022/05/06 12:10:24;;;;;;;19.00;13.33;;;;;;;;;;5005186;28;20495;-39
2022/05/06 12:12:57;;;;;;;21.87;13.97;;;;;;;;;;5004506;28;20473;-41
2022/05/06 12:15:29;;;;;;;21.63;14.57;;;;;;;;;;5002968;28;20209;-39
2022/05/06 12:18:06;;;;;;;17.33;14.20;;;;;;;;;;5006291;28;20577;-41
2022/05/06 12:20:32;;;;;;;16.33;13.77;;;;;;;;;;5002907;28;20254;-40
2022/05/06 12:22:58;;;;;;;17.43;12.07;;;;;;;;;;5002546;28;20290;-40
2022/05/06 12:25:25;;;;;;;17.27;13.37;;;;;;;;;;5003556;28;20226;-40
2022/05/06 12:28:23;;;;;;;19.13;13.80;;;;;;;;;;5002316;28;20411;-38
2022/05/06 12:31:00;;;;;;;19.60;13.63;;;;;;;;;;4993875;28;20226;-38
2022/05/06 12:33:37;;;;;;;20.07;13.77;;;;;;;;;;5004624;28;20187;-41
2022/05/06 12:36:05;;;;;;;18.43;13.50;;;;;;;;;;5004450;28;20176;-38
2022/05/06 12:38:37;;;;;;;16.57;13.37;;;;;;;;;;5001751;28;20212;-40
2022/05/06 12:41:19;;;;;;;16.87;13.60;;;;;;;;;;5004671;28;20175;-40
2022/05/06 12:43:46;;;;;;;17.77;13.20;;;;;;;;;;5000666;28;20168;-39
2022/05/06 12:46:24;;;;;;;17.90;14.10;;;;;;;;;;5003965;28;20745;-37
2022/05/06 12:51:35;;;;;;;16.90;13.63;;;;;;;;;;5006339;28;21290;-39
2022/05/06 12:54:01;;;;;;;22.43;14.23;;;;;;;;;;5002732;28;20820;-40
2022/05/06 12:56:27;;;;;;;18.13;13.47;;;;;;;;;;5004619;28;20737;-40
2022/05/06 12:58:53;;;;;;;16.73;13.33;;;;;;;;;;5005154;28;20563;-37
2022/05/06 13:01:19;;;;;;;19.77;12.10;;;;;;;;;;5000663;28;20199;-39
2022/05/06 13:03:45;;;;;;;16.80;13.70;;;;;;;;;;4998888;28;20172;-42
2022/05/06 13:06:11;;;;;;;18.03;13.03;;;;;;;;;;5006155;28;20749;-42
2022/05/06 13:08:38;;;;;;;17.10;14.90;;;;;;;;;;5005514;28;20262;-42
2022/05/06 13:11:04;;;;;;;19.20;14.63;;;;;;;;;;5003827;28;20176;-40
2022/05/06 13:13:30;;;;;;;22.73;15.63;;;;;;;;;;4997641;28;20394;-41
2022/05/06 13:15:59;;;;;;;18.73;14.53;;;;;;;;;;5004319;28;20172;-42
2022/05/06 13:18:28;;;;;;;18.90;14.07;;;;;;;;;;5003823;28;20192;-42
2022/05/06 13:20:54;;;;;;;19.57;12.83;;;;;;;;;;5001926;28;20843;-40
2022/05/06 13:23:20;;;;;;;15.20;12.43;;;;;;;;;;5000677;28;20626;-40
2022/05/06 13:25:47;;;;;;;14.83;12.20;;;;;;;;;;5005309;28;20175;-35
2022/05/06 13:28:13;;;;;;;19.53;13.63;;;;;;;;;;5004208;28;21157;-39
2022/05/06 13:30:39;;;;;;;19.50;14.30;;;;;;;;;;4994802;28;20790;-38
2022/05/06 13:33:05;;;;;;;19.97;14.10;;;;;;;;;;5002563;28;21570;-40
2022/05/06 13:35:31;;;;;;;18.43;15.60;;;;;;;;;;5005992;28;20176;-39
2022/05/06 13:37:58;;;;;;;20.97;15.23;;;;;;;;;;5000282;28;20651;-40
2022/05/06 13:40:24;;;;;;;20.77;14.67;;;;;;;;;;5002859;28;20525;-38
2022/05/06 13:42:50;;;;;;;18.53;14.60;;;;;;;;;;4999709;28;20188;-39
2022/05/06 13:45:17;;;;;;;19.53;14.93;;;;;;;;;;5002229;28;20180;-40
2022/05/06 13:47:43;;;;;;;17.37;13.93;;;;;;;;;;5002068;28;20176;-41
2022/05/06 13:50:09;;;;;;;17.07;13.40;;;;;;;;;;4995330;28;20735;-40
2022/05/06 13:52:35;;;;;;;18.20;13.93;;;;;;;;;;4997029;28;20191;-40
2022/05/06 13:55:05;;;;;;;17.73;14.00;;;;;;;;;;5005571;28;20184;-41
2022/05/06 14:00:17;;;;;;;23.80;15.63;;;;;;;;;;5002488;28;21266;-40
2022/05/06 14:02:43;;;;;;;16.20;13.67;;;;;;;;;;5002139;28;20598;-38
2022/05/06 14:05:10;;;;;;;19.03;14.93;;;;;;;;;;5003663;28;20664;-41
2022/05/06 14:07:36;;;;;;;17.87;14.30;;;;;;;;;;4996789;28;20192;-42
2022/05/06 14:10:03;;;;;;;15.33;13.70;;;;;;;;;;5000464;28;20839;-41
2022/05/06 14:12:29;;;;;;;17.27;13.20;;;;;;;;;;5002272;28;20290;-42
2022/05/06 14:14:56;;;;;;;21.47;14.13;;;;;;;;;;4997370;28;20690;-41
2022/05/06 14:17:22;;;;;;;15.50;13.17;;;;;;;;;;4996167;28;20191;-43
2022/05/06 14:19:48;;;;;;;16.23;13.27;;;;;;;;;;5001274;28;20833;-43
2022/05/06 14:22:14;;;;;;;15.97;13.23;;;;;;;;;;4997384;28;20634;-42
2022/05/06 14:24:46;;;;;;;17.27;12.83;;;;;;;;;;4987868;28;20454;-42
2022/05/06 14:27:12;;;;;;;15.60;12.80;;;;;;;;;;4993606;28;20334;-42
2022/05/06 14:29:38;;;;;;;17.63;11.27;;;;;;;;;;4988985;28;20187;-41
2022/05/06 14:32:05;;;;;;;16.80;12.30;;;;;;;;;;4992411;28;20226;-42
2022/05/06 14:34:31;;;;;;;14.10;11.77;;;;;;;;;;4992618;28;20715;-43
2022/05/06 14:36:57;;;;;;;16.00;11.23;;;;;;;;;;5002050;28;20176;-43
2022/05/06 14:39:23;;;;;;;13.33;11.23;;;;;;;;;;4997680;28;20597;-43
2022/05/06 14:41:49;;;;;;;15.83;11.60;;;;;;;;;;4999570;28;20537;-42
2022/05/06 14:44:16;;;;;;;15.33;11.73;;;;;;;;;;4995954;28;20844;-44
2022/05/06 14:46:42;;;;;;;15.73;11.63;;;;;;;;;;4998481;28;20267;-42
2022/05/06 14:49:08;;;;;;;12.97;11.37;;;;;;;;;;4994775;28;20727;-44
2022/05/06 14:51:34;;;;;;;14.97;11.27;;;;;;;;;;4998341;28;20664;-41
2022/05/06 14:54:04;;;;;;;15.73;11.60;;;;;;;;;;4998701;28;20176;-44
2022/05/06 14:56:31;;;;;;;12.87;10.47;;;;;;;;;;5002885;28;20740;-44
2022/05/06 14:58:58;;;;;;;12.90;10.10;;;;;;;;;;5003205;28;20975;-44
2022/05/06 15:01:24;;;;;;;14.60;10.50;;;;;;;;;;5003320;28;20924;-44
2022/05/06 15:03:50;;;;;;;14.80;8.83;;;;;;;;;;5001175;28;21160;-42
2022/05/06 15:06:16;;;;;;;13.57;10.10;;;;;;;;;;4998873;28;20281;-42
2022/05/06 15:08:42;;;;;;;15.17;9.87;;;;;;;;;;4995880;28;20415;-40
2022/05/06 15:11:09;;;;;;;11.23;8.73;;;;;;;;;;5003377;28;20203;-40
2022/05/06 15:13:36;;;;;;;10.70;9.33;;;;;;;;;;5003013;28;20187;-41
2022/05/06 15:16:02;;;;;;;12.33;9.37;;;;;;;;;;4995907;28;21090;-42
2022/05/06 15:21:13;;;;;;;14.67;10.33;;;;;;;;;;5005710;28;20577;-40